sensor_id;sensor_type;location;lat;lon;timestamp;P1;durP1;ratioP1;P2;durP2;ratioP2
42682;SDS011;28293;50.930;3.464;2023-02-28T00:00:20;14.27;;;9.32;;
42682;SDS011;28293;50.930;3.464;2023-02-28T00:02:47;14.60;;;9.05;;
42682;SDS011;28293;50.930;3.464;2023-02-28T00:05:15;13.98;;;9.60;;
42682;SDS011;28293;50.930;3.464;2023-02-28T00:07:45;13.13;;;9.02;;
42682;SDS011;28293;50.930;3.464;2023-02-28T00:10:12;14.00;;;8.70;;
42682;SDS011;28293;50.930;3.464;2023-02-28T00:12:39;17.20;;;9.43;;
42682;SDS011;28293;50.930;3.464;2023-02-28T00:15:06;15.98;;;9.80;;
42682;SDS011;28293;50.930;3.464;2023-02-28T00:17:34;12.80;;;9.25;;
42682;SDS011;28293;50.930;3.464;2023-02-28T00:20:00;13.40;;;9.45;;
42682;SDS011;28293;50.930;3.464;2023-02-28T00:22:37;14.40;;;8.88;;
42682;SDS011;28293;50.930;3.464;2023-02-28T00:25:05;13.05;;;9.63;;
42682;SDS011;28293;50.930;3.464;2023-02-28T00:27:32;15.82;;;10.38;;
42682;SDS011;28293;50.930;3.464;2023-02-28T00:29:58;13.25;;;9.23;;
42682;SDS011;28293;50.930;3.464;2023-02-28T00:32:24;14.48;;;9.75;;
42682;SDS011;28293;50.930;3.464;2023-02-28T00:34:50;12.23;;;8.77;;
42682;SDS011;28293;50.930;3.464;2023-02-28T00:37:15;14.45;;;10.35;;
42682;SDS011;28293;50.930;3.464;2023-02-28T00:39:41;14.95;;;10.00;;
42682;SDS011;28293;50.930;3.464;2023-02-28T00:42:07;14.98;;;9.75;;
42682;SDS011;28293;50.930;3.464;2023-02-28T00:44:33;18.25;;;10.55;;
42682;SDS011;28293;50.930;3.464;2023-02-28T00:46:59;14.73;;;9.90;;
42682;SDS011;28293;50.930;3.464;2023-02-28T00:49:25;16.10;;;9.90;;
42682;SDS011;28293;50.930;3.464;2023-02-28T00:51:51;15.15;;;9.90;;
42682;SDS011;28293;50.930;3.464;2023-02-28T00:54:18;14.13;;;10.52;;
42682;SDS011;28293;50.930;3.464;2023-02-28T00:56:44;14.23;;;9.10;;
42682;SDS011;28293;50.930;3.464;2023-02-28T00:59:11;15.73;;;9.95;;
42682;SDS011;28293;50.930;3.464;2023-02-28T01:01:37;14.43;;;10.18;;
42682;SDS011;28293;50.930;3.464;2023-02-28T01:04:03;15.82;;;10.52;;
42682;SDS011;28293;50.930;3.464;2023-02-28T01:06:29;15.80;;;10.98;;
42682;SDS011;28293;50.930;3.464;2023-02-28T01:08:56;14.73;;;10.38;;
42682;SDS011;28293;50.930;3.464;2023-02-28T01:11:23;14.02;;;9.73;;
42682;SDS011;28293;50.930;3.464;2023-02-28T01:13:49;18.67;;;10.55;;
42682;SDS011;28293;50.930;3.464;2023-02-28T01:16:15;14.05;;;10.43;;
42682;SDS011;28293;50.930;3.464;2023-02-28T01:18:41;16.05;;;11.65;;
42682;SDS011;28293;50.930;3.464;2023-02-28T01:21:08;15.90;;;11.55;;
42682;SDS011;28293;50.930;3.464;2023-02-28T01:23:39;14.02;;;11.23;;
42682;SDS011;28293;50.930;3.464;2023-02-28T01:28:32;18.45;;;12.55;;
42682;SDS011;28293;50.930;3.464;2023-02-28T01:30:57;18.40;;;11.70;;
42682;SDS011;28293;50.930;3.464;2023-02-28T01:33:23;21.25;;;12.45;;
42682;SDS011;28293;50.930;3.464;2023-02-28T01:35:49;15.93;;;11.73;;
42682;SDS011;28293;50.930;3.464;2023-02-28T01:38:14;14.50;;;11.48;;
42682;SDS011;28293;50.930;3.464;2023-02-28T01:40:40;16.77;;;12.23;;
42682;SDS011;28293;50.930;3.464;2023-02-28T01:43:17;17.08;;;12.20;;
42682;SDS011;28293;50.930;3.464;2023-02-28T01:45:46;17.33;;;12.13;;
42682;SDS011;28293;50.930;3.464;2023-02-28T01:48:12;19.42;;;12.50;;
42682;SDS011;28293;50.930;3.464;2023-02-28T01:50:39;15.70;;;12.27;;
42682;SDS011;28293;50.930;3.464;2023-02-28T01:53:11;19.60;;;12.52;;
42682;SDS011;28293;50.930;3.464;2023-02-28T01:55:45;17.80;;;12.27;;
42682;SDS011;28293;50.930;3.464;2023-02-28T01:58:13;19.77;;;12.20;;
42682;SDS011;28293;50.930;3.464;2023-02-28T02:00:39;15.02;;;11.10;;
42682;SDS011;28293;50.930;3.464;2023-02-28T02:03:11;15.32;;;11.27;;
42682;SDS011;28293;50.930;3.464;2023-02-28T02:05:40;16.98;;;11.55;;
42682;SDS011;28293;50.930;3.464;2023-02-28T02:08:08;20.13;;;12.65;;
42682;SDS011;28293;50.930;3.464;2023-02-28T02:10:39;15.73;;;11.93;;
42682;SDS011;28293;50.930;3.464;2023-02-28T02:13:10;15.75;;;12.82;;
42682;SDS011;28293;50.930;3.464;2023-02-28T02:15:49;17.77;;;11.98;;
42682;SDS011;28293;50.930;3.464;2023-02-28T02:19:01;14.75;;;11.65;;
42682;SDS011;28293;50.930;3.464;2023-02-28T02:26:58;18.35;;;13.18;;
42682;SDS011;28293;50.930;3.464;2023-02-28T02:34:45;16.25;;;12.48;;
42682;SDS011;28293;50.930;3.464;2023-02-28T02:37:25;16.77;;;12.60;;
42682;SDS011;28293;50.930;3.464;2023-02-28T02:45:10;19.50;;;13.25;;
42682;SDS011;28293;50.930;3.464;2023-02-28T02:47:44;17.10;;;12.57;;
42682;SDS011;28293;50.930;3.464;2023-02-28T02:50:12;17.63;;;12.27;;
42682;SDS011;28293;50.930;3.464;2023-02-28T02:52:44;19.00;;;12.73;;
42682;SDS011;28293;50.930;3.464;2023-02-28T02:55:14;17.60;;;12.77;;
42682;SDS011;28293;50.930;3.464;2023-02-28T02:57:52;17.92;;;12.63;;
42682;SDS011;28293;50.930;3.464;2023-02-28T03:00:23;16.60;;;12.52;;
42682;SDS011;28293;50.930;3.464;2023-02-28T03:03:01;16.50;;;12.77;;
42682;SDS011;28293;50.930;3.464;2023-02-28T03:05:31;16.98;;;12.85;;
42682;SDS011;28293;50.930;3.464;2023-02-28T03:08:04;17.70;;;12.75;;
42682;SDS011;28293;50.930;3.464;2023-02-28T03:10:35;18.10;;;12.88;;
42682;SDS011;28293;50.930;3.464;2023-02-28T03:13:16;18.90;;;13.63;;
42682;SDS011;28293;50.930;3.464;2023-02-28T03:18:54;22.42;;;13.25;;
42682;SDS011;28293;50.930;3.464;2023-02-28T03:21:36;20.80;;;13.02;;
42682;SDS011;28293;50.930;3.464;2023-02-28T03:24:04;23.90;;;14.57;;
42682;SDS011;28293;50.930;3.464;2023-02-28T03:26:41;21.60;;;14.32;;
42682;SDS011;28293;50.930;3.464;2023-02-28T03:29:14;22.00;;;14.02;;
42682;SDS011;28293;50.930;3.464;2023-02-28T03:31:50;22.95;;;14.23;;
42682;SDS011;28293;50.930;3.464;2023-02-28T03:37:05;19.98;;;14.40;;
42682;SDS011;28293;50.930;3.464;2023-02-28T03:39:37;26.02;;;15.30;;
42682;SDS011;28293;50.930;3.464;2023-02-28T03:42:06;20.92;;;14.45;;
42682;SDS011;28293;50.930;3.464;2023-02-28T03:45:02;22.65;;;15.18;;
42682;SDS011;28293;50.930;3.464;2023-02-28T03:47:36;21.15;;;15.05;;
42682;SDS011;28293;50.930;3.464;2023-02-28T03:50:07;19.08;;;13.35;;
42682;SDS011;28293;50.930;3.464;2023-02-28T03:52:42;20.00;;;13.65;;
42682;SDS011;28293;50.930;3.464;2023-02-28T03:55:13;18.33;;;13.25;;
42682;SDS011;28293;50.930;3.464;2023-02-28T03:57:43;20.10;;;12.95;;
42682;SDS011;28293;50.930;3.464;2023-02-28T04:00:20;19.80;;;14.38;;
42682;SDS011;28293;50.930;3.464;2023-02-28T04:02:53;19.80;;;13.82;;
42682;SDS011;28293;50.930;3.464;2023-02-28T04:05:19;20.42;;;15.00;;
42682;SDS011;28293;50.930;3.464;2023-02-28T04:07:45;23.70;;;14.27;;
42682;SDS011;28293;50.930;3.464;2023-02-28T04:10:11;20.42;;;14.70;;
42682;SDS011;28293;50.930;3.464;2023-02-28T04:12:38;22.02;;;14.20;;
42682;SDS011;28293;50.930;3.464;2023-02-28T04:15:04;22.25;;;14.32;;
42682;SDS011;28293;50.930;3.464;2023-02-28T04:17:30;18.02;;;13.50;;
42682;SDS011;28293;50.930;3.464;2023-02-28T04:19:56;21.55;;;13.50;;
42682;SDS011;28293;50.930;3.464;2023-02-28T04:22:22;17.95;;;13.68;;
42682;SDS011;28293;50.930;3.464;2023-02-28T04:24:51;21.70;;;14.43;;
42682;SDS011;28293;50.930;3.464;2023-02-28T04:27:18;19.77;;;13.45;;
42682;SDS011;28293;50.930;3.464;2023-02-28T04:29:44;20.52;;;13.68;;
42682;SDS011;28293;50.930;3.464;2023-02-28T04:32:10;19.40;;;14.05;;
42682;SDS011;28293;50.930;3.464;2023-02-28T04:34:36;19.25;;;14.45;;
42682;SDS011;28293;50.930;3.464;2023-02-28T04:37:02;19.15;;;14.10;;
42682;SDS011;28293;50.930;3.464;2023-02-28T04:39:29;19.45;;;14.18;;
42682;SDS011;28293;50.930;3.464;2023-02-28T04:41:55;23.13;;;14.65;;
42682;SDS011;28293;50.930;3.464;2023-02-28T04:44:21;24.65;;;13.63;;
42682;SDS011;28293;50.930;3.464;2023-02-28T04:46:48;20.08;;;14.05;;
42682;SDS011;28293;50.930;3.464;2023-02-28T04:49:15;19.73;;;13.80;;
42682;SDS011;28293;50.930;3.464;2023-02-28T04:51:41;21.63;;;14.38;;
42682;SDS011;28293;50.930;3.464;2023-02-28T04:54:07;23.55;;;14.70;;
42682;SDS011;28293;50.930;3.464;2023-02-28T04:56:33;20.23;;;13.60;;
42682;SDS011;28293;50.930;3.464;2023-02-28T04:58:58;22.58;;;14.10;;
42682;SDS011;28293;50.930;3.464;2023-02-28T05:03:55;19.38;;;13.40;;
42682;SDS011;28293;50.930;3.464;2023-02-28T05:06:22;21.20;;;13.50;;
42682;SDS011;28293;50.930;3.464;2023-02-28T05:08:49;22.00;;;14.20;;
42682;SDS011;28293;50.930;3.464;2023-02-28T05:11:17;20.67;;;14.40;;
42682;SDS011;28293;50.930;3.464;2023-02-28T05:13:47;23.08;;;14.25;;
42682;SDS011;28293;50.930;3.464;2023-02-28T05:16:13;18.15;;;13.23;;
42682;SDS011;28293;50.930;3.464;2023-02-28T05:18:40;20.88;;;13.85;;
42682;SDS011;28293;50.930;3.464;2023-02-28T05:21:06;17.73;;;13.05;;
42682;SDS011;28293;50.930;3.464;2023-02-28T05:23:42;17.80;;;13.52;;
42682;SDS011;28293;50.930;3.464;2023-02-28T05:26:07;20.10;;;13.70;;
42682;SDS011;28293;50.930;3.464;2023-02-28T05:28:33;18.05;;;13.80;;
42682;SDS011;28293;50.930;3.464;2023-02-28T05:30:59;18.83;;;13.55;;
42682;SDS011;28293;50.930;3.464;2023-02-28T05:33:24;21.55;;;13.90;;
42682;SDS011;28293;50.930;3.464;2023-02-28T05:35:50;21.05;;;13.10;;
42682;SDS011;28293;50.930;3.464;2023-02-28T05:38:15;20.05;;;13.18;;
42682;SDS011;28293;50.930;3.464;2023-02-28T05:40:42;20.27;;;13.60;;
42682;SDS011;28293;50.930;3.464;2023-02-28T05:43:09;17.83;;;12.43;;
42682;SDS011;28293;50.930;3.464;2023-02-28T05:45:36;23.20;;;14.15;;
42682;SDS011;28293;50.930;3.464;2023-02-28T05:48:02;20.38;;;13.50;;
42682;SDS011;28293;50.930;3.464;2023-02-28T05:50:28;19.67;;;13.40;;
42682;SDS011;28293;50.930;3.464;2023-02-28T05:52:53;19.60;;;13.85;;
42682;SDS011;28293;50.930;3.464;2023-02-28T05:55:19;20.77;;;13.50;;
42682;SDS011;28293;50.930;3.464;2023-02-28T05:57:45;17.30;;;14.10;;
42682;SDS011;28293;50.930;3.464;2023-02-28T06:00:11;20.45;;;13.00;;
42682;SDS011;28293;50.930;3.464;2023-02-28T06:02:38;18.35;;;13.20;;
42682;SDS011;28293;50.930;3.464;2023-02-28T06:05:05;20.50;;;15.10;;
42682;SDS011;28293;50.930;3.464;2023-02-28T06:07:37;22.08;;;14.77;;
42682;SDS011;28293;50.930;3.464;2023-02-28T06:10:03;18.73;;;14.00;;
42682;SDS011;28293;50.930;3.464;2023-02-28T06:12:29;19.58;;;14.15;;
42682;SDS011;28293;50.930;3.464;2023-02-28T06:14:55;21.20;;;14.18;;
42682;SDS011;28293;50.930;3.464;2023-02-28T06:17:21;18.77;;;13.18;;
42682;SDS011;28293;50.930;3.464;2023-02-28T06:19:46;22.00;;;14.27;;
42682;SDS011;28293;50.930;3.464;2023-02-28T06:22:13;21.98;;;13.95;;
42682;SDS011;28293;50.930;3.464;2023-02-28T06:24:38;22.48;;;13.48;;
42682;SDS011;28293;50.930;3.464;2023-02-28T06:27:04;19.98;;;14.20;;
42682;SDS011;28293;50.930;3.464;2023-02-28T06:29:35;19.77;;;13.88;;
42682;SDS011;28293;50.930;3.464;2023-02-28T06:32:04;19.98;;;14.02;;
42682;SDS011;28293;50.930;3.464;2023-02-28T06:34:30;21.88;;;14.50;;
42682;SDS011;28293;50.930;3.464;2023-02-28T06:36:56;19.80;;;13.73;;
42682;SDS011;28293;50.930;3.464;2023-02-28T06:39:27;24.15;;;15.02;;
42682;SDS011;28293;50.930;3.464;2023-02-28T06:41:53;24.63;;;15.18;;
42682;SDS011;28293;50.930;3.464;2023-02-28T06:44:18;21.85;;;14.75;;
42682;SDS011;28293;50.930;3.464;2023-02-28T06:46:45;20.83;;;15.13;;
42682;SDS011;28293;50.930;3.464;2023-02-28T06:49:11;21.13;;;14.57;;
42682;SDS011;28293;50.930;3.464;2023-02-28T06:51:37;22.38;;;15.38;;
42682;SDS011;28293;50.930;3.464;2023-02-28T06:54:06;20.52;;;14.85;;
42682;SDS011;28293;50.930;3.464;2023-02-28T06:56:35;19.48;;;14.45;;
42682;SDS011;28293;50.930;3.464;2023-02-28T06:59:01;23.95;;;15.02;;
42682;SDS011;28293;50.930;3.464;2023-02-28T07:01:27;22.83;;;14.38;;
42682;SDS011;28293;50.930;3.464;2023-02-28T07:03:53;22.20;;;14.38;;
42682;SDS011;28293;50.930;3.464;2023-02-28T07:06:19;24.35;;;16.40;;
42682;SDS011;28293;50.930;3.464;2023-02-28T07:08:49;23.60;;;15.32;;
42682;SDS011;28293;50.930;3.464;2023-02-28T07:11:17;23.77;;;17.70;;
42682;SDS011;28293;50.930;3.464;2023-02-28T07:13:42;20.55;;;14.68;;
42682;SDS011;28293;50.930;3.464;2023-02-28T07:16:09;20.95;;;15.10;;
42682;SDS011;28293;50.930;3.464;2023-02-28T07:18:36;23.45;;;14.60;;
42682;SDS011;28293;50.930;3.464;2023-02-28T07:21:02;21.90;;;15.43;;
42682;SDS011;28293;50.930;3.464;2023-02-28T07:23:33;29.60;;;17.63;;
42682;SDS011;28293;50.930;3.464;2023-02-28T07:25:58;30.33;;;15.65;;
42682;SDS011;28293;50.930;3.464;2023-02-28T07:28:24;21.13;;;14.32;;
42682;SDS011;28293;50.930;3.464;2023-02-28T07:30:50;21.67;;;14.60;;
42682;SDS011;28293;50.930;3.464;2023-02-28T07:33:16;20.30;;;12.98;;
42682;SDS011;28293;50.930;3.464;2023-02-28T07:35:42;18.95;;;14.65;;
42682;SDS011;28293;50.930;3.464;2023-02-28T07:38:07;19.33;;;13.63;;
42682;SDS011;28293;50.930;3.464;2023-02-28T07:40:34;23.55;;;14.80;;
42682;SDS011;28293;50.930;3.464;2023-02-28T07:43:01;18.70;;;14.05;;
42682;SDS011;28293;50.930;3.464;2023-02-28T07:45:27;27.38;;;14.00;;
42682;SDS011;28293;50.930;3.464;2023-02-28T07:47:57;46.00;;;23.40;;
42682;SDS011;28293;50.930;3.464;2023-02-28T07:50:23;17.60;;;10.95;;
42682;SDS011;28293;50.930;3.464;2023-02-28T07:52:48;19.15;;;10.38;;
42682;SDS011;28293;50.930;3.464;2023-02-28T07:55:14;40.00;;;17.08;;
42682;SDS011;28293;50.930;3.464;2023-02-28T07:57:41;19.40;;;12.77;;
42682;SDS011;28293;50.930;3.464;2023-02-28T08:00:08;18.05;;;11.85;;
42682;SDS011;28293;50.930;3.464;2023-02-28T08:02:35;19.08;;;12.85;;
42682;SDS011;28293;50.930;3.464;2023-02-28T08:05:01;15.20;;;11.45;;
42682;SDS011;28293;50.930;3.464;2023-02-28T08:07:27;14.70;;;11.52;;
42682;SDS011;28293;50.930;3.464;2023-02-28T08:09:53;16.10;;;10.15;;
42682;SDS011;28293;50.930;3.464;2023-02-28T08:12:18;14.93;;;9.23;;
42682;SDS011;28293;50.930;3.464;2023-02-28T08:14:44;15.27;;;9.40;;
42682;SDS011;28293;50.930;3.464;2023-02-28T08:17:10;14.82;;;9.95;;
42682;SDS011;28293;50.930;3.464;2023-02-28T08:19:36;15.02;;;10.15;;
42682;SDS011;28293;50.930;3.464;2023-02-28T08:22:02;15.52;;;9.70;;
42682;SDS011;28293;50.930;3.464;2023-02-28T08:24:27;22.60;;;12.13;;
42682;SDS011;28293;50.930;3.464;2023-02-28T08:26:53;15.77;;;9.02;;
42682;SDS011;28293;50.930;3.464;2023-02-28T08:29:19;14.60;;;7.65;;
42682;SDS011;28293;50.930;3.464;2023-02-28T08:31:45;12.23;;;7.57;;
42682;SDS011;28293;50.930;3.464;2023-02-28T08:34:12;12.43;;;7.90;;
42682;SDS011;28293;50.930;3.464;2023-02-28T08:36:39;13.23;;;8.40;;
42682;SDS011;28293;50.930;3.464;2023-02-28T08:39:05;23.67;;;9.52;;
42682;SDS011;28293;50.930;3.464;2023-02-28T08:41:31;13.57;;;8.07;;
42682;SDS011;28293;50.930;3.464;2023-02-28T08:43:57;14.57;;;6.60;;
42682;SDS011;28293;50.930;3.464;2023-02-28T08:46:23;13.70;;;8.02;;
42682;SDS011;28293;50.930;3.464;2023-02-28T08:48:52;11.23;;;7.00;;
42682;SDS011;28293;50.930;3.464;2023-02-28T08:51:19;10.70;;;7.68;;
42682;SDS011;28293;50.930;3.464;2023-02-28T08:53:54;10.70;;;7.13;;
42682;SDS011;28293;50.930;3.464;2023-02-28T08:56:23;18.00;;;8.93;;
42682;SDS011;28293;50.930;3.464;2023-02-28T08:58:49;13.38;;;7.80;;
42682;SDS011;28293;50.930;3.464;2023-02-28T09:01:16;13.25;;;7.43;;
42682;SDS011;28293;50.930;3.464;2023-02-28T09:03:47;10.07;;;6.43;;
42682;SDS011;28293;50.930;3.464;2023-02-28T09:06:14;11.52;;;7.40;;
42682;SDS011;28293;50.930;3.464;2023-02-28T09:08:41;10.48;;;6.72;;
42682;SDS011;28293;50.930;3.464;2023-02-28T09:11:07;10.88;;;8.05;;
42682;SDS011;28293;50.930;3.464;2023-02-28T09:13:34;11.07;;;7.75;;
42682;SDS011;28293;50.930;3.464;2023-02-28T09:16:01;10.75;;;7.13;;
42682;SDS011;28293;50.930;3.464;2023-02-28T09:18:28;10.55;;;7.15;;
42682;SDS011;28293;50.930;3.464;2023-02-28T09:20:54;14.10;;;7.40;;
42682;SDS011;28293;50.930;3.464;2023-02-28T09:23:20;13.80;;;7.90;;
42682;SDS011;28293;50.930;3.464;2023-02-28T09:25:50;12.02;;;7.13;;
42682;SDS011;28293;50.930;3.464;2023-02-28T09:28:17;12.32;;;7.30;;
42682;SDS011;28293;50.930;3.464;2023-02-28T09:30:47;12.70;;;7.32;;
42682;SDS011;28293;50.930;3.464;2023-02-28T09:33:14;15.38;;;7.50;;
42682;SDS011;28293;50.930;3.464;2023-02-28T09:35:41;9.95;;;6.07;;
42682;SDS011;28293;50.930;3.464;2023-02-28T09:38:07;10.10;;;5.85;;
42682;SDS011;28293;50.930;3.464;2023-02-28T09:40:38;10.18;;;5.75;;
42682;SDS011;28293;50.930;3.464;2023-02-28T09:43:12;9.32;;;4.90;;
42682;SDS011;28293;50.930;3.464;2023-02-28T09:45:42;10.55;;;5.40;;
42682;SDS011;28293;50.930;3.464;2023-02-28T09:48:16;7.20;;;4.82;;
42682;SDS011;28293;50.930;3.464;2023-02-28T09:50:52;8.20;;;4.50;;
42682;SDS011;28293;50.930;3.464;2023-02-28T09:53:27;8.85;;;4.95;;
42682;SDS011;28293;50.930;3.464;2023-02-28T09:55:59;9.00;;;4.57;;
42682;SDS011;28293;50.930;3.464;2023-02-28T09:58:35;8.30;;;4.85;;
42682;SDS011;28293;50.930;3.464;2023-02-28T10:04:02;8.77;;;5.18;;
42682;SDS011;28293;50.930;3.464;2023-02-28T10:06:45;8.30;;;5.22;;
42682;SDS011;28293;50.930;3.464;2023-02-28T10:09:18;8.00;;;4.65;;
42682;SDS011;28293;50.930;3.464;2023-02-28T10:11:52;10.55;;;5.43;;
42682;SDS011;28293;50.930;3.464;2023-02-28T10:14:22;7.43;;;4.70;;
42682;SDS011;28293;50.930;3.464;2023-02-28T10:16:55;8.38;;;4.57;;
42682;SDS011;28293;50.930;3.464;2023-02-28T10:19:32;9.02;;;5.20;;
42682;SDS011;28293;50.930;3.464;2023-02-28T10:22:11;8.18;;;5.00;;
42682;SDS011;28293;50.930;3.464;2023-02-28T10:24:46;10.73;;;5.30;;
42682;SDS011;28293;50.930;3.464;2023-02-28T10:27:22;9.68;;;5.50;;
42682;SDS011;28293;50.930;3.464;2023-02-28T10:29:51;10.30;;;5.45;;
42682;SDS011;28293;50.930;3.464;2023-02-28T10:32:39;7.00;;;4.70;;
42682;SDS011;28293;50.930;3.464;2023-02-28T10:37:40;10.73;;;6.03;;
42682;SDS011;28293;50.930;3.464;2023-02-28T10:45:19;9.73;;;4.65;;
42682;SDS011;28293;50.930;3.464;2023-02-28T10:50:35;7.82;;;4.72;;
42682;SDS011;28293;50.930;3.464;2023-02-28T10:53:49;8.25;;;4.82;;
42682;SDS011;28293;50.930;3.464;2023-02-28T10:55:59;8.50;;;5.25;;
42682;SDS011;28293;50.930;3.464;2023-02-28T10:58:42;8.30;;;5.40;;
42682;SDS011;28293;50.930;3.464;2023-02-28T11:01:17;7.55;;;4.70;;
42682;SDS011;28293;50.930;3.464;2023-02-28T11:03:59;8.35;;;5.03;;
42682;SDS011;28293;50.930;3.464;2023-02-28T11:06:26;11.25;;;5.63;;
42682;SDS011;28293;50.930;3.464;2023-02-28T11:08:56;10.43;;;5.03;;
42682;SDS011;28293;50.930;3.464;2023-02-28T11:11:25;9.65;;;5.45;;
42682;SDS011;28293;50.930;3.464;2023-02-28T11:13:55;10.50;;;5.15;;
42682;SDS011;28293;50.930;3.464;2023-02-28T11:16:30;10.18;;;5.43;;
42682;SDS011;28293;50.930;3.464;2023-02-28T11:19:02;8.80;;;5.10;;
42682;SDS011;28293;50.930;3.464;2023-02-28T11:21:40;8.52;;;5.47;;
42682;SDS011;28293;50.930;3.464;2023-02-28T11:24:24;8.43;;;4.97;;
42682;SDS011;28293;50.930;3.464;2023-02-28T11:26:53;9.38;;;5.80;;
42682;SDS011;28293;50.930;3.464;2023-02-28T11:29:22;9.18;;;4.50;;
42682;SDS011;28293;50.930;3.464;2023-02-28T11:34:34;6.60;;;3.97;;
42682;SDS011;28293;50.930;3.464;2023-02-28T11:37:01;8.13;;;5.10;;
42682;SDS011;28293;50.930;3.464;2023-02-28T11:39:31;8.10;;;4.60;;
42682;SDS011;28293;50.930;3.464;2023-02-28T11:42:02;10.50;;;5.53;;
42682;SDS011;28293;50.930;3.464;2023-02-28T11:53:26;8.80;;;5.38;;
42682;SDS011;28293;50.930;3.464;2023-02-28T12:02:00;8.02;;;4.95;;
42682;SDS011;28293;50.930;3.464;2023-02-28T12:09:40;8.10;;;4.18;;
42682;SDS011;28293;50.930;3.464;2023-02-28T12:20:33;8.15;;;5.22;;
42682;SDS011;28293;50.930;3.464;2023-02-28T12:29:04;6.30;;;4.30;;
42682;SDS011;28293;50.930;3.464;2023-02-28T12:31:53;8.98;;;4.70;;
42682;SDS011;28293;50.930;3.464;2023-02-28T12:34:25;7.68;;;4.15;;
42682;SDS011;28293;50.930;3.464;2023-02-28T12:36:56;6.20;;;3.85;;
42682;SDS011;28293;50.930;3.464;2023-02-28T12:39:26;6.80;;;3.67;;
42682;SDS011;28293;50.930;3.464;2023-02-28T12:42:09;6.13;;;3.80;;
42682;SDS011;28293;50.930;3.464;2023-02-28T12:44:46;6.03;;;3.97;;
42682;SDS011;28293;50.930;3.464;2023-02-28T12:47:17;5.55;;;3.20;;
42682;SDS011;28293;50.930;3.464;2023-02-28T12:52:12;7.70;;;4.15;;
42682;SDS011;28293;50.930;3.464;2023-02-28T12:54:53;7.35;;;3.75;;
42682;SDS011;28293;50.930;3.464;2023-02-28T12:57:33;6.22;;;3.50;;
42682;SDS011;28293;50.930;3.464;2023-02-28T13:00:14;4.97;;;3.28;;
42682;SDS011;28293;50.930;3.464;2023-02-28T13:13:18;7.55;;;3.78;;
42682;SDS011;28293;50.930;3.464;2023-02-28T13:16:08;6.00;;;3.75;;
42682;SDS011;28293;50.930;3.464;2023-02-28T13:18:35;5.47;;;3.45;;
42682;SDS011;28293;50.930;3.464;2023-02-28T13:21:02;7.85;;;3.60;;
42682;SDS011;28293;50.930;3.464;2023-02-28T13:26:04;7.30;;;3.30;;
42682;SDS011;28293;50.930;3.464;2023-02-28T13:31:14;7.53;;;3.30;;
42682;SDS011;28293;50.930;3.464;2023-02-28T13:36:26;5.70;;;3.38;;
42682;SDS011;28293;50.930;3.464;2023-02-28T13:46:25;6.45;;;3.47;;
42682;SDS011;28293;50.930;3.464;2023-02-28T13:48:50;6.25;;;3.15;;
42682;SDS011;28293;50.930;3.464;2023-02-28T13:51:50;5.70;;;3.30;;
42682;SDS011;28293;50.930;3.464;2023-02-28T13:57:01;7.00;;;3.65;;
42682;SDS011;28293;50.930;3.464;2023-02-28T13:59:57;5.85;;;3.25;;
42682;SDS011;28293;50.930;3.464;2023-02-28T14:02:52;7.60;;;2.97;;
42682;SDS011;28293;50.930;3.464;2023-02-28T14:05:35;5.63;;;3.35;;
42682;SDS011;28293;50.930;3.464;2023-02-28T14:08:06;6.15;;;3.38;;
42682;SDS011;28293;50.930;3.464;2023-02-28T14:10:44;5.32;;;3.03;;
42682;SDS011;28293;50.930;3.464;2023-02-28T14:15:54;6.50;;;3.63;;
42682;SDS011;28293;50.930;3.464;2023-02-28T14:18:23;5.72;;;3.47;;
42682;SDS011;28293;50.930;3.464;2023-02-28T14:21:03;7.32;;;3.88;;
42682;SDS011;28293;50.930;3.464;2023-02-28T14:23:43;8.95;;;3.83;;
42682;SDS011;28293;50.930;3.464;2023-02-28T14:26:33;7.20;;;3.42;;
42682;SDS011;28293;50.930;3.464;2023-02-28T14:32:27;5.72;;;3.85;;
42682;SDS011;28293;50.930;3.464;2023-02-28T14:38:23;7.97;;;3.53;;
42682;SDS011;28293;50.930;3.464;2023-02-28T14:40:55;7.65;;;3.95;;
42682;SDS011;28293;50.930;3.464;2023-02-28T14:43:26;6.32;;;3.85;;
42682;SDS011;28293;50.930;3.464;2023-02-28T14:45:54;6.18;;;3.33;;
42682;SDS011;28293;50.930;3.464;2023-02-28T14:48:22;6.80;;;4.03;;
42682;SDS011;28293;50.930;3.464;2023-02-28T14:50:51;6.85;;;4.30;;
42682;SDS011;28293;50.930;3.464;2023-02-28T14:53:22;8.70;;;5.13;;
42682;SDS011;28293;50.930;3.464;2023-02-28T14:56:00;7.95;;;3.80;;
42682;SDS011;28293;50.930;3.464;2023-02-28T14:58:27;7.55;;;4.40;;
42682;SDS011;28293;50.930;3.464;2023-02-28T15:01:01;6.15;;;3.92;;
42682;SDS011;28293;50.930;3.464;2023-02-28T15:03:35;6.57;;;3.80;;
42682;SDS011;28293;50.930;3.464;2023-02-28T15:06:13;8.05;;;4.40;;
42682;SDS011;28293;50.930;3.464;2023-02-28T15:08:41;9.05;;;4.30;;
42682;SDS011;28293;50.930;3.464;2023-02-28T15:11:08;6.47;;;3.97;;
42682;SDS011;28293;50.930;3.464;2023-02-28T15:16:37;8.53;;;4.57;;
42682;SDS011;28293;50.930;3.464;2023-02-28T15:21:51;7.40;;;4.68;;
42682;SDS011;28293;50.930;3.464;2023-02-28T15:24:31;7.97;;;4.70;;
42682;SDS011;28293;50.930;3.464;2023-02-28T15:27:20;7.97;;;4.95;;
42682;SDS011;28293;50.930;3.464;2023-02-28T15:29:49;7.60;;;4.88;;
42682;SDS011;28293;50.930;3.464;2023-02-28T15:32:30;9.38;;;5.50;;
42682;SDS011;28293;50.930;3.464;2023-02-28T15:40:46;10.15;;;4.75;;
42682;SDS011;28293;50.930;3.464;2023-02-28T15:43:26;10.57;;;5.15;;
42682;SDS011;28293;50.930;3.464;2023-02-28T15:45:59;7.53;;;4.85;;
42682;SDS011;28293;50.930;3.464;2023-02-28T15:48:28;7.75;;;4.70;;
42682;SDS011;28293;50.930;3.464;2023-02-28T15:51:07;6.97;;;4.40;;
42682;SDS011;28293;50.930;3.464;2023-02-28T15:56:52;10.40;;;5.47;;
42682;SDS011;28293;50.930;3.464;2023-02-28T15:59:22;9.00;;;5.03;;
42682;SDS011;28293;50.930;3.464;2023-02-28T16:04:35;13.32;;;5.00;;
42682;SDS011;28293;50.930;3.464;2023-02-28T16:07:03;7.90;;;5.00;;
42682;SDS011;28293;50.930;3.464;2023-02-28T16:09:30;7.10;;;4.32;;
42682;SDS011;28293;50.930;3.464;2023-02-28T16:11:59;8.18;;;5.18;;
42682;SDS011;28293;50.930;3.464;2023-02-28T16:14:29;10.75;;;5.20;;
42682;SDS011;28293;50.930;3.464;2023-02-28T16:17:05;8.43;;;5.30;;
42682;SDS011;28293;50.930;3.464;2023-02-28T16:19:35;8.63;;;4.95;;
42682;SDS011;28293;50.930;3.464;2023-02-28T16:22:00;8.90;;;5.13;;
42682;SDS011;28293;50.930;3.464;2023-02-28T16:24:26;7.97;;;5.13;;
42682;SDS011;28293;50.930;3.464;2023-02-28T16:26:52;15.20;;;6.20;;
42682;SDS011;28293;50.930;3.464;2023-02-28T16:29:30;8.30;;;4.65;;
42682;SDS011;28293;50.930;3.464;2023-02-28T16:31:57;9.90;;;6.13;;
42682;SDS011;28293;50.930;3.464;2023-02-28T16:34:24;9.10;;;5.60;;
42682;SDS011;28293;50.930;3.464;2023-02-28T16:36:50;12.60;;;6.43;;
42682;SDS011;28293;50.930;3.464;2023-02-28T16:39:16;10.88;;;5.80;;
42682;SDS011;28293;50.930;3.464;2023-02-28T16:41:42;11.20;;;6.55;;
42682;SDS011;28293;50.930;3.464;2023-02-28T16:44:10;9.60;;;5.38;;
42682;SDS011;28293;50.930;3.464;2023-02-28T16:46:44;8.38;;;5.30;;
42682;SDS011;28293;50.930;3.464;2023-02-28T16:49:13;9.60;;;5.13;;
42682;SDS011;28293;50.930;3.464;2023-02-28T16:51:39;7.15;;;5.10;;
42682;SDS011;28293;50.930;3.464;2023-02-28T16:54:04;10.52;;;5.90;;
42682;SDS011;28293;50.930;3.464;2023-02-28T16:56:30;7.88;;;5.07;;
42682;SDS011;28293;50.930;3.464;2023-02-28T16:58:58;9.93;;;5.47;;
42682;SDS011;28293;50.930;3.464;2023-02-28T17:01:26;7.80;;;5.57;;
42682;SDS011;28293;50.930;3.464;2023-02-28T17:03:52;14.35;;;5.38;;